Time;durP1;ratioP1;P1;durP2;ratioP2;P2;SDS_P1;SDS_P2;PMS_P1;PMS_P2;Temp;Humidity;BMP_temperature;BMP_pressure;BME280_temperature;BME280_humidity;BME280_pressure;Samples;Min_cycle;Max_cycle;Signal;HPM_P1;HPM_P2
2022/07/22 00:01:58;;;;;;;6.83;2.47;;;17.60;99.90;;;;;;5094059;27;20297;-53
2022/07/22 00:04:26;;;;;;;8.20;2.60;;;17.80;99.90;;;;;;5099590;27;20200;-52
2022/07/22 00:06:53;;;;;;;8.63;2.40;;;17.60;99.90;;;;;;5097430;27;20201;-52
2022/07/22 00:09:21;;;;;;;8.20;2.63;;;17.70;99.90;;;;;;5082469;28;20201;-52
2022/07/22 00:11:48;;;;;;;5.03;2.43;;;17.70;99.90;;;;;;5062349;28;20653;-51
2022/07/22 00:14:15;;;;;;;5.80;2.57;;;17.80;99.90;;;;;;5098078;28;20202;-52
2022/07/22 00:16:42;;;;;;;8.67;2.40;;;17.90;99.90;;;;;;5095439;27;20217;-52
2022/07/22 00:19:10;;;;;;;9.03;2.57;;;17.70;99.90;;;;;;5095662;27;20285;-51
2022/07/22 00:21:37;;;;;;;5.20;2.10;;;17.70;99.90;;;;;;5095380;27;20221;-54
2022/07/22 00:24:04;;;;;;;6.97;2.60;;;17.70;99.90;;;;;;5095089;27;20761;-54
2022/07/22 00:26:31;;;;;;;6.57;2.30;;;17.80;99.90;;;;;;5078232;27;20201;-54
2022/07/22 00:28:58;;;;;;;7.47;3.03;;;17.80;99.90;;;;;;5078109;28;20690;-53
2022/07/22 00:31:26;;;;;;;10.40;2.43;;;17.80;99.90;;;;;;5087991;27;20236;-52
2022/07/22 00:33:53;;;;;;;7.00;2.23;;;17.70;99.90;;;;;;5098815;27;20200;-54
2022/07/22 00:36:20;;;;;;;7.00;3.00;;;17.60;99.90;;;;;;5098276;27;20208;-54
2022/07/22 00:38:47;;;;;;;8.40;2.20;;;17.70;99.90;;;;;;5100591;27;20680;-54
2022/07/22 00:41:15;;;;;;;6.50;2.67;;;17.70;99.90;;;;;;5095905;27;20743;-54
2022/07/22 00:44:00;;;;;;;4.27;2.40;;;17.70;99.90;;;;;;5100700;27;20674;-53
2022/07/22 00:46:30;;;;;;;7.43;2.50;;;17.70;99.90;;;;;;5075974;27;20244;-54
2022/07/22 00:48:57;;;;;;;10.20;3.63;;;17.70;99.90;;;;;;5085320;27;20213;-54
2022/07/22 00:51:26;;;;;;;7.80;2.47;;;17.70;99.90;;;;;;5092848;28;20202;-54
2022/07/22 00:53:56;;;;;;;7.50;2.63;;;17.60;99.90;;;;;;5091057;27;20634;-54
2022/07/22 00:56:24;;;;;;;7.73;2.23;;;17.70;99.90;;;;;;5087307;28;20750;-55
2022/07/22 00:58:53;;;;;;;4.50;2.47;;;17.80;99.90;;;;;;5095646;27;20236;-54
2022/07/22 01:01:21;;;;;;;6.17;2.20;;;17.60;99.90;;;;;;5090196;28;20857;-52
2022/07/22 01:03:48;;;;;;;8.40;2.57;;;17.70;99.90;;;;;;5098785;28;20232;-55
2022/07/22 01:06:21;;;;;;;5.50;1.83;;;17.60;99.90;;;;;;5078556;28;20548;-53
2022/07/22 01:08:48;;;;;;;4.40;2.13;;;17.60;99.90;;;;;;5076080;28;20206;-54
2022/07/22 01:11:21;;;;;;;3.87;2.20;;;17.60;99.90;;;;;;5098369;28;20196;-54
2022/07/22 01:13:49;;;;;;;8.63;2.20;;;17.70;99.90;;;;;;5095213;28;20202;-54
2022/07/22 01:16:18;;;;;;;10.77;2.30;;;17.70;99.90;;;;;;5093061;28;20224;-54
2022/07/22 01:18:46;;;;;;;8.63;2.43;;;17.70;99.90;;;;;;5091116;28;20287;-53
2022/07/22 01:21:14;;;;;;;4.67;2.00;;;17.70;99.90;;;;;;5091419;28;21756;-54
2022/07/22 01:23:42;;;;;;;4.50;1.90;;;17.70;99.90;;;;;;5079653;28;20544;-54
2022/07/22 01:26:09;;;;;;;6.37;2.40;;;17.70;99.90;;;;;;5093593;28;20201;-52
2022/07/22 01:28:36;;;;;;;8.20;2.30;;;17.60;99.90;;;;;;5091006;28;20198;-54
2022/07/22 01:31:07;;;;;;;6.07;2.10;;;17.70;99.90;;;;;;5091231;28;20194;-53
2022/07/22 01:33:35;;;;;;;7.70;2.17;;;17.70;99.90;;;;;;5081807;28;20642;-54
2022/07/22 01:36:04;;;;;;;6.80;2.60;;;17.70;99.90;;;;;;5080287;28;20288;-54
2022/07/22 01:38:31;;;;;;;7.37;2.40;;;17.70;99.90;;;;;;5098044;28;20193;-54
2022/07/22 01:40:58;;;;;;;5.47;1.93;;;17.50;99.90;;;;;;5082653;28;20201;-54
2022/07/22 01:43:25;;;;;;;6.93;2.63;;;17.50;99.90;;;;;;5094317;28;20749;-53
2022/07/22 01:45:53;;;;;;;8.07;2.13;;;17.60;99.90;;;;;;5080552;28;20206;-53
2022/07/22 01:48:21;;;;;;;6.00;2.20;;;17.50;99.90;;;;;;5099609;28;20307;-54
2022/07/22 01:50:52;;;;;;;7.23;2.30;;;17.60;99.90;;;;;;5100000;28;20209;-54
2022/07/22 01:53:19;;;;;;;8.77;2.20;;;17.60;99.90;;;;;;5092139;28;20470;-54
2022/07/22 01:55:47;;;;;;;6.37;2.50;;;17.60;99.90;;;;;;5082271;28;20227;-53
2022/07/22 01:58:14;;;;;;;8.57;2.23;;;17.50;99.90;;;;;;5091230;28;21790;-54
2022/07/22 02:00:41;;;;;;;8.60;3.13;;;17.60;99.90;;;;;;5085273;28;20212;-53
2022/07/22 02:03:10;;;;;;;7.33;2.37;;;17.60;99.90;;;;;;5085990;28;20726;-54
2022/07/22 02:05:37;;;;;;;5.60;2.40;;;17.60;99.90;;;;;;5091529;28;20196;-54
2022/07/22 02:08:08;;;;;;;2.53;1.70;;;17.70;99.90;;;;;;5094376;28;20209;-52
2022/07/22 02:10:36;;;;;;;6.23;1.90;;;17.70;99.90;;;;;;5070348;28;20259;-53
2022/07/22 02:13:03;;;;;;;8.70;2.07;;;17.70;99.90;;;;;;5070627;28;20207;-54
2022/07/22 02:15:31;;;;;;;5.60;2.27;;;17.80;99.90;;;;;;5092628;28;20722;-53
2022/07/22 02:17:58;;;;;;;5.57;1.80;;;17.90;99.90;;;;;;5091092;28;20205;-54
2022/07/22 02:20:25;;;;;;;7.10;2.80;;;17.80;99.90;;;;;;5089690;28;20255;-53
2022/07/22 02:22:52;;;;;;;5.00;1.67;;;17.70;99.90;;;;;;5057912;28;20221;-54
2022/07/22 02:25:19;;;;;;;8.80;2.40;;;17.80;99.90;;;;;;5075255;28;20205;-54
2022/07/22 02:27:46;;;;;;;5.27;2.30;;;17.70;99.90;;;;;;5078535;28;20561;-54
2022/07/22 02:30:13;;;;;;;5.03;2.03;;;17.70;99.90;;;;;;5093427;28;20191;-54
2022/07/22 02:32:40;;;;;;;4.73;1.70;;;17.70;99.90;;;;;;5094448;27;20205;-53
2022/07/22 02:35:08;;;;;;;10.83;2.50;;;17.80;99.90;;;;;;5094960;27;20215;-54
2022/07/22 02:37:37;;;;;;;7.13;2.60;;;17.80;99.90;;;;;;5086829;28;20926;-54
2022/07/22 02:40:06;;;;;;;7.13;3.00;;;17.80;99.90;;;;;;5096005;27;20207;-53
2022/07/22 02:42:33;;;;;;;7.10;2.90;;;17.70;99.90;;;;;;5077396;27;20232;-54
2022/07/22 02:45:00;;;;;;;5.13;2.43;;;17.80;99.90;;;;;;5081557;27;20230;-54
2022/07/22 02:47:31;;;;;;;7.60;3.00;;;17.70;99.90;;;;;;5095486;27;20555;-54
2022/07/22 02:49:58;;;;;;;10.33;2.97;;;17.70;99.90;;;;;;5093306;27;20248;-51
2022/07/22 02:52:25;;;;;;;9.37;2.90;;;17.60;99.90;;;;;;5100241;27;20682;-51
2022/07/22 02:54:52;;;;;;;6.27;2.63;;;17.60;99.90;;;;;;5097338;27;20229;-51
2022/07/22 02:57:19;;;;;;;7.10;3.40;;;17.60;99.90;;;;;;5080708;28;20234;-52
2022/07/22 02:59:46;;;;;;;8.83;3.00;;;17.50;99.90;;;;;;5096254;27;20210;-51
2022/07/22 03:02:13;;;;;;;6.57;2.53;;;17.60;99.90;;;;;;5080349;28;20241;-51
2022/07/22 03:04:40;;;;;;;5.47;2.90;;;17.60;99.90;;;;;;5079762;28;20199;-52
2022/07/22 03:07:08;;;;;;;9.80;2.83;;;17.60;99.90;;;;;;5094525;27;20404;-50
2022/07/22 03:09:35;;;;;;;5.80;2.60;;;17.70;99.90;;;;;;5077965;28;20278;-51
2022/07/22 03:12:03;;;;;;;8.37;2.50;;;17.70;99.90;;;;;;5096897;28;20262;-50
2022/07/22 03:14:30;;;;;;;4.60;2.47;;;17.60;99.90;;;;;;5094978;27;20208;-52
2022/07/22 03:16:57;;;;;;;10.40;2.60;;;17.70;99.90;;;;;;5078704;27;20207;-50
2022/07/22 03:19:25;;;;;;;8.93;2.77;;;17.70;99.90;;;;;;5100082;27;20243;-51
2022/07/22 03:21:52;;;;;;;2.90;2.20;;;17.70;99.90;;;;;;5095027;27;20287;-52
2022/07/22 03:24:19;;;;;;;5.67;2.13;;;17.80;99.90;;;;;;5095867;27;20194;-52
2022/07/22 03:26:45;;;;;;;4.57;2.33;;;17.80;99.90;;;;;;5098326;28;20202;-52
2022/07/22 03:29:13;;;;;;;5.20;2.37;;;17.60;99.90;;;;;;5099211;27;20230;-50
2022/07/22 03:31:40;;;;;;;3.07;2.00;;;17.50;99.90;;;;;;5094669;27;20627;-50
2022/07/22 03:34:07;;;;;;;7.93;1.90;;;17.50;99.90;;;;;;5090585;27;20669;-51
2022/07/22 03:36:37;;;;;;;8.43;2.33;;;17.60;99.90;;;;;;5090083;27;21357;-50
2022/07/22 03:39:04;;;;;;;5.70;2.40;;;17.60;99.90;;;;;;5070087;27;20202;-52
2022/07/22 03:41:32;;;;;;;5.23;2.20;;;17.60;99.90;;;;;;5090360;27;20197;-51
2022/07/22 03:43:59;;;;;;;6.40;2.13;;;17.60;99.90;;;;;;5086281;27;20218;-52
2022/07/22 03:46:29;;;;;;;7.43;2.50;;;17.60;99.90;;;;;;5100218;27;20666;-50
2022/07/22 03:48:56;;;;;;;7.00;2.60;;;17.70;99.90;;;;;;5100425;27;20658;-51
2022/07/22 03:51:23;;;;;;;5.67;2.20;;;17.70;99.90;;;;;;5098465;27;20212;-50
2022/07/22 03:53:54;;;;;;;6.17;2.70;;;17.70;99.90;;;;;;5097188;27;20321;-53
2022/07/22 03:56:21;;;;;;;7.27;2.20;;;17.80;99.90;;;;;;5087121;27;20840;-54
2022/07/22 03:58:48;;;;;;;8.20;2.50;;;17.70;99.90;;;;;;5069693;28;20218;-53
2022/07/22 04:01:15;;;;;;;7.50;2.60;;;17.80;99.90;;;;;;5058661;28;21826;-53
2022/07/22 04:03:43;;;;;;;6.10;2.43;;;17.80;99.90;;;;;;5074653;28;20228;-53
2022/07/22 04:06:10;;;;;;;6.67;2.57;;;17.80;99.90;;;;;;5059342;28;20204;-54
2022/07/22 04:08:40;;;;;;;5.37;2.63;;;17.80;99.90;;;;;;5081387;28;20202;-53
2022/07/22 04:11:07;;;;;;;4.87;2.87;;;17.80;99.90;;;;;;5066938;28;20345;-53
2022/07/22 04:13:34;;;;;;;8.03;2.93;;;17.80;99.90;;;;;;5062587;28;20605;-53
2022/07/22 04:16:04;;;;;;;3.17;2.30;;;17.80;99.90;;;;;;5078411;28;20241;-53
2022/07/22 04:18:35;;;;;;;10.03;2.30;;;17.80;99.90;;;;;;5088644;28;20209;-54
2022/07/22 04:21:05;;;;;;;7.87;3.17;;;17.80;99.90;;;;;;5074265;28;20214;-53
2022/07/22 04:23:32;;;;;;;6.53;2.20;;;17.90;99.90;;;;;;5086717;28;20218;-53
2022/07/22 04:26:00;;;;;;;12.53;2.50;;;17.90;99.90;;;;;;5061719;28;22217;-53
2022/07/22 04:28:35;;;;;;;8.53;2.80;;;17.90;99.90;;;;;;5075101;28;20293;-54
2022/07/22 04:31:03;;;;;;;6.23;2.47;;;17.70;99.90;;;;;;5075322;28;20193;-54
2022/07/22 04:33:31;;;;;;;4.97;2.47;;;17.80;99.90;;;;;;5081441;28;20212;-54
2022/07/22 04:35:59;;;;;;;4.10;2.40;;;17.80;99.90;;;;;;5084659;28;20661;-53
2022/07/22 04:38:26;;;;;;;7.53;2.33;;;17.80;99.90;;;;;;5072742;28;20704;-53
2022/07/22 04:40:53;;;;;;;6.40;2.50;;;17.80;99.90;;;;;;5076213;28;20199;-54
2022/07/22 04:43:21;;;;;;;7.77;2.30;;;17.90;99.90;;;;;;5083098;28;20229;-52
2022/07/22 04:45:49;;;;;;;5.97;2.40;;;17.80;99.90;;;;;;5064197;28;20198;-52
2022/07/22 04:48:16;;;;;;;4.77;2.10;;;17.80;99.90;;;;;;5081649;28;20198;-53
2022/07/22 04:50:44;;;;;;;7.07;2.40;;;17.80;99.90;;;;;;5077916;28;20300;-53
2022/07/22 04:53:11;;;;;;;6.00;2.63;;;17.70;99.90;;;;;;5065264;28;20211;-54
2022/07/22 04:55:39;;;;;;;8.63;3.67;;;17.90;99.90;;;;;;5078194;28;20232;-54
2022/07/22 04:58:06;;;;;;;12.77;3.87;;;17.90;99.90;;;;;;5078711;28;20243;-56
2022/07/22 05:00:40;;;;;;;10.43;4.23;;;17.60;99.90;;;;;;5076499;28;20198;-54
2022/07/22 05:03:08;;;;;;;8.07;4.17;;;17.50;99.90;;;;;;5097928;27;20214;-53
2022/07/22 05:05:35;;;;;;;8.53;4.83;;;17.50;99.90;;;;;;5093959;28;20231;-52
2022/07/22 05:08:02;;;;;;;10.90;4.10;;;17.70;99.90;;;;;;5096376;27;20195;-53
2022/07/22 05:10:29;;;;;;;9.13;4.70;;;17.90;99.90;;;;;;5094811;28;20937;-54
2022/07/22 05:12:56;;;;;;;7.77;3.80;;;17.80;99.90;;;;;;5081545;28;20666;-54
2022/07/22 05:15:23;;;;;;;4.57;3.47;;;17.80;99.90;;;;;;5097108;28;20682;-54
2022/07/22 05:17:51;;;;;;;9.57;4.13;;;17.80;99.90;;;;;;5099010;28;20207;-54
2022/07/22 05:20:18;;;;;;;8.33;4.90;;;17.70;99.90;;;;;;5079946;28;20625;-52
2022/07/22 05:22:45;;;;;;;13.60;4.50;;;17.60;99.90;;;;;;5080649;28;20223;-52
2022/07/22 05:25:12;;;;;;;7.77;4.40;;;17.70;99.90;;;;;;5094620;28;20195;-51
2022/07/22 05:27:50;;;;;;;8.40;4.63;;;17.80;99.90;;;;;;5095760;28;20309;-52
2022/07/22 05:30:17;;;;;;;12.17;4.27;;;17.80;99.90;;;;;;5091014;28;20572;-53
2022/07/22 05:32:49;;;;;;;8.40;4.20;;;17.90;99.90;;;;;;5100847;28;20210;-52
2022/07/22 05:35:17;;;;;;;6.77;3.90;;;18.00;99.90;;;;;;5104923;28;20277;-52
2022/07/22 05:37:44;;;;;;;8.37;4.00;;;18.00;99.90;;;;;;5067731;28;20581;-53
2022/07/22 05:40:11;;;;;;;6.57;3.03;;;18.10;99.90;;;;;;5063057;28;20776;-53
2022/07/22 05:42:40;;;;;;;8.30;2.83;;;18.00;99.90;;;;;;5066528;28;20251;-53
2022/07/22 05:45:07;;;;;;;7.37;2.47;;;18.10;99.90;;;;;;5081214;28;20615;-53
2022/07/22 05:47:34;;;;;;;6.67;2.10;;;18.20;99.90;;;;;;5097211;28;20272;-53
2022/07/22 05:50:02;;;;;;;5.77;2.33;;;18.30;99.90;;;;;;5098104;28;20206;-52
2022/07/22 05:52:29;;;;;;;3.90;2.13;;;18.30;99.90;;;;;;4737142;28;10000668;-51
2022/07/22 05:54:59;;;;;;;9.47;2.60;;;18.30;99.90;;;;;;5071259;28;20276;-52
2022/07/22 05:57:26;;;;;;;4.43;2.00;;;18.40;99.90;;;;;;5087608;28;20324;-52
2022/07/22 05:59:53;;;;;;;2.53;1.87;;;18.40;99.90;;;;;;5083865;28;20812;-52
2022/07/22 06:02:23;;;;;;;5.07;2.00;;;18.30;99.90;;;;;;5063008;28;20206;-52
2022/07/22 06:04:54;;;;;;;7.03;2.40;;;18.40;99.90;;;;;;5088620;28;20199;-51
2022/07/22 06:07:22;;;;;;;6.63;2.00;;;18.40;99.90;;;;;;5082991;28;20602;-52
2022/07/22 06:09:49;;;;;;;5.87;2.20;;;18.30;99.90;;;;;;5084913;28;20274;-52
2022/07/22 06:12:16;;;;;;;5.27;2.23;;;18.40;99.90;;;;;;5086535;28;20597;-52
2022/07/22 06:14:43;;;;;;;5.70;2.00;;;18.50;99.90;;;;;;5082529;28;20205;-53
2022/07/22 06:17:13;;;;;;;3.90;1.80;;;18.60;99.90;;;;;;5079120;28;20216;-52
2022/07/22 06:19:40;;;;;;;4.30;1.67;;;18.40;99.90;;;;;;5066292;28;20326;-51
2022/07/22 06:22:07;;;;;;;2.97;1.60;;;18.60;99.90;;;;;;5086483;28;20206;-53
2022/07/22 06:24:34;;;;;;;7.10;1.80;;;18.60;1.00;;;;;;5066126;28;20706;-53
2022/07/22 06:27:01;;;;;;;4.57;1.83;;;18.60;99.90;;;;;;5064219;28;20708;-53
2022/07/22 06:29:28;;;;;;;3.40;2.20;;;18.50;99.90;;;;;;5091558;28;20705;-52
2022/07/22 06:31:55;;;;;;;3.90;1.57;;;18.70;1.00;;;;;;5092791;28;20194;-53
2022/07/22 06:34:22;;;;;;;2.53;1.40;;;18.70;99.90;;;;;;5097917;28;20202;-53
2022/07/22 06:36:52;;;;;;;6.57;1.67;;;18.60;1.00;;;;;;5099981;28;20207;-53
2022/07/22 06:39:19;;;;;;;4.20;1.27;;;18.60;1.00;;;;;;5098200;28;20618;-53
2022/07/22 06:41:46;;;;;;;5.73;1.20;;;18.60;99.90;;;;;;5077207;28;20248;-53
2022/07/22 06:44:16;;;;;;;1.83;1.00;;;18.80;1.00;;;;;;5078862;28;20237;-58
2022/07/22 06:46:43;;;;;;;1.90;1.03;;;18.90;99.90;;;;;;5080302;28;20726;-52
2022/07/22 06:49:10;;;;;;;4.23;1.33;;;18.80;99.90;;;;;;5095706;28;20691;-52
2022/07/22 06:51:39;;;;;;;3.13;1.60;;;18.60;1.00;;;;;;5095658;28;20647;-52
2022/07/22 06:54:09;;;;;;;3.90;1.53;;;18.50;26.10;;;;;;5095469;28;20314;-53
2022/07/22 06:56:36;;;;;;;5.27;1.87;;;18.60;99.90;;;;;;5086427;28;20250;-52
2022/07/22 06:59:03;;;;;;;8.07;1.80;;;18.60;1.00;;;;;;5071108;28;20638;-52
2022/07/22 07:01:30;;;;;;;5.20;2.03;;;18.80;1.00;;;;;;5058519;28;20577;-52
2022/07/22 07:03:58;;;;;;;6.13;2.67;;;18.80;1.00;;;;;;5073255;28;20775;-52
2022/07/22 07:06:25;;;;;;;3.93;2.30;;;18.70;99.90;;;;;;5090586;28;20264;-52
2022/07/22 07:08:53;;;;;;;6.70;2.80;;;18.70;1.00;;;;;;5088525;28;20682;-51
2022/07/22 07:11:23;;;;;;;3.63;2.80;;;19.00;1.00;;;;;;5090688;28;20289;-52
2022/07/22 07:13:51;;;;;;;3.57;2.77;;;19.30;1.00;;;;;;5074535;28;20840;-53
2022/07/22 07:16:18;;;;;;;5.10;3.40;;;19.00;25.60;;;;;;5084765;28;20202;-51
2022/07/22 07:18:45;;;;;;;5.47;3.73;;;19.00;1.00;;;;;;5087548;28;20211;-52
2022/07/22 07:21:12;;;;;;;4.70;3.80;;;19.20;1.00;;;;;;5078729;28;20271;-53
2022/07/22 07:23:40;;;;;;;4.73;3.30;;;19.20;1.00;;;;;;5081349;28;20587;-52
2022/07/22 07:26:11;;;;;;;4.37;3.03;;;19.30;99.90;;;;;;5086301;28;20281;-53
2022/07/22 07:28:38;;;;;;;4.53;3.20;;;19.30;99.90;;;;;;5069850;28;20645;-52
2022/07/22 07:31:07;;;;;;;4.73;2.80;;;19.50;99.90;;;;;;5065471;28;20232;-53
2022/07/22 07:33:35;;;;;;;6.37;2.77;;;19.80;30.50;;;;;;5069852;28;20221;-52
2022/07/22 07:36:02;;;;;;;5.47;3.57;;;19.90;1.00;;;;;;5071273;28;20205;-53
2022/07/22 07:38:30;;;;;;;6.10;3.63;;;19.60;1.00;;;;;;5092037;28;20198;-53
2022/07/22 07:40:59;;;;;;;4.33;3.60;;;19.40;1.00;;;;;;5072575;28;20202;-52
2022/07/22 07:43:26;;;;;;;5.23;3.50;;;19.40;1.00;;;;;;5091768;28;20272;-52
2022/07/22 07:45:53;;;;;;;4.23;3.37;;;19.70;1.00;;;;;;5090771;28;20263;-53
2022/07/22 07:48:20;;;;;;;4.30;3.60;;;19.80;99.90;;;;;;5076386;28;20195;-53
2022/07/22 07:50:47;;;;;;;4.13;3.43;;;20.10;1.00;;;;;;5075307;28;20202;-53
2022/07/22 07:53:18;;;;;;;3.70;2.73;;;20.30;1.00;;;;;;5090355;28;20272;-53
2022/07/22 07:55:46;;;;;;;4.40;2.93;;;20.40;1.00;;;;;;5089779;28;20741;-53
2022/07/22 07:58:13;;;;;;;4.33;3.10;;;20.60;99.90;;;;;;5059486;28;20657;-53
2022/07/22 08:00:42;;;;;;;5.83;3.27;;;20.60;1.00;;;;;;5069986;28;20282;-52
2022/07/22 08:03:09;;;;;;;4.10;2.90;;;20.80;99.90;;;;;;5093910;28;20237;-53
2022/07/22 08:05:41;;;;;;;2.80;2.60;;;21.00;1.00;;;;;;5090064;28;20615;-55
2022/07/22 08:08:09;;;;;;;4.50;2.93;;;20.80;99.90;;;;;;5049764;28;20411;-54
2022/07/22 08:10:41;;;;;;;4.43;2.87;;;20.80;1.00;;;;;;5080123;28;20198;-51
2022/07/22 08:13:26;;;;;;;3.77;3.13;;;20.90;1.00;;;;;;5081474;28;20209;-53
2022/07/22 08:15:54;;;;;;;3.47;3.17;;;21.20;1.00;;;;;;5082386;28;20316;-52
2022/07/22 08:18:21;;;;;;;6.60;3.43;;;21.40;1.00;;;;;;5084770;28;20238;-52
2022/07/22 08:20:48;;;;;;;3.83;3.00;;;21.30;99.90;;;;;;5064311;28;20230;-53
2022/07/22 08:23:14;;;;;;;4.17;3.00;;;21.60;62.80;;;;;;5039713;28;20307;-52
2022/07/22 08:25:43;;;;;;;5.30;2.63;;;21.50;1.00;;;;;;5063636;28;20200;-52
2022/07/22 08:28:10;;;;;;;6.80;4.17;;;21.60;74.60;;;;;;5089347;28;20211;-52
2022/07/22 08:30:37;;;;;;;5.90;3.57;;;21.40;1.00;;;;;;5078952;28;20190;-53
2022/07/22 08:33:04;;;;;;;3.87;3.33;;;21.40;1.00;;;;;;5064648;28;20555;-52
2022/07/22 08:35:31;;;;;;;6.30;3.43;;;21.50;1.00;;;;;;5038454;28;20205;-52
2022/07/22 08:37:58;;;;;;;5.07;3.50;;;21.80;99.90;;;;;;5071535;28;20319;-53
2022/07/22 08:40:25;;;;;;;4.63;3.43;;;21.70;90.50;;;;;;5083054;28;20608;-53
2022/07/22 08:42:52;;;;;;;4.50;3.10;;;21.70;1.00;;;;;;5087986;28;20253;-52
2022/07/22 08:45:19;;;;;;;3.53;2.70;;;22.00;1.00;;;;;;5064569;28;20241;-52
2022/07/22 08:47:49;;;;;;;3.37;2.90;;;21.90;1.00;;;;;;5063099;28;20229;-52
2022/07/22 08:50:17;;;;;;;3.43;3.03;;;21.80;99.90;;;;;;5071033;28;20225;-52
2022/07/22 08:52:47;;;;;;;5.40;3.70;;;22.00;1.00;;;;;;5087230;28;20890;-53
2022/07/22 08:55:14;;;;;;;4.03;3.23;;;22.00;1.00;;;;;;5089997;28;20324;-53
2022/07/22 08:57:45;;;;;;;4.80;3.60;;;22.00;99.90;;;;;;5071996;28;20248;-52
2022/07/22 09:00:19;;;;;;;4.03;3.57;;;21.60;99.90;;;;;;5082181;28;20210;-53
2022/07/22 09:02:47;;;;;;;4.43;3.60;;;21.90;99.90;;;;;;5079603;28;20250;-55
2022/07/22 09:05:16;;;;;;;4.60;3.80;;;21.70;99.90;;;;;;5060976;28;20663;-53
2022/07/22 09:08:03;;;;;;;4.80;3.10;;;21.80;99.90;;;;;;5080181;28;20221;-53
2022/07/22 09:10:34;;;;;;;4.40;4.00;;;21.70;99.90;;;;;;5060557;28;20206;-52
2022/07/22 09:13:05;;;;;;;4.90;4.30;;;21.60;99.90;;;;;;5081921;28;20187;-53
2022/07/22 09:15:45;;;;;;;4.13;3.73;;;21.60;99.90;;;;;;5077399;28;20198;-53
2022/07/22 09:18:12;;;;;;;5.57;4.20;;;21.80;99.90;;;;;;5074673;28;20287;-53
2022/07/22 09:20:39;;;;;;;4.33;3.80;;;22.00;99.90;;;;;;5080612;28;20581;-53
2022/07/22 09:23:17;;;;;;;6.87;4.63;;;22.10;99.90;;;;;;5080470;28;20223;-53
2022/07/22 09:25:44;;;;;;;5.90;4.20;;;21.60;99.90;;;;;;5057665;28;20251;-53
2022/07/22 09:28:14;;;;;;;6.07;4.23;;;21.40;99.90;;;;;;5084546;28;20226;-52
2022/07/22 09:30:50;;;;;;;5.30;4.80;;;21.30;99.90;;;;;;5079882;28;20564;-53
2022/07/22 09:33:21;;;;;;;6.43;4.33;;;21.30;99.90;;;;;;5081046;28;20335;-52
2022/07/22 09:35:49;;;;;;;6.67;4.40;;;21.40;99.90;;;;;;5064806;28;20226;-52
2022/07/22 09:38:26;;;;;;;7.70;4.80;;;22.10;99.90;;;;;;5078688;28;20195;-53
2022/07/22 09:40:53;;;;;;;5.10;4.20;;;21.70;99.90;;;;;;5055846;28;20502;-53
2022/07/22 09:43:21;;;;;;;5.33;4.83;;;21.60;99.90;;;;;;5086593;28;20277;-52
2022/07/22 09:45:53;;;;;;;4.50;3.70;;;21.30;99.90;;;;;;5083219;28;20728;-53
2022/07/22 09:48:21;;;;;;;5.73;4.40;;;22.00;99.90;;;;;;5077292;28;20279;-52
2022/07/22 09:50:49;;;;;;;6.07;4.07;;;22.80;99.90;;;;;;5088231;28;20290;-53
2022/07/22 09:53:19;;;;;;;6.67;4.13;;;22.80;99.90;;;;;;5085754;28;20258;-53
2022/07/22 09:55:47;;;;;;;5.73;4.10;;;23.10;99.90;;;;;;5082417;28;20599;-54
2022/07/22 09:58:14;;;;;;;5.23;4.23;;;22.80;99.90;;;;;;5100450;27;20330;-54
2022/07/22 10:00:42;;;;;;;4.43;4.00;;;22.70;99.90;;;;;;5079357;28;20206;-52
2022/07/22 10:03:17;;;;;;;5.57;4.70;;;22.50;99.90;;;;;;5102942;27;20211;-55
2022/07/22 10:05:45;;;;;;;4.70;4.13;;;22.00;99.90;;;;;;5101655;27;20200;-54
2022/07/22 10:08:12;;;;;;;5.57;3.90;;;22.00;99.90;;;;;;5098425;27;20239;-54
2022/07/22 10:10:39;;;;;;;4.43;3.93;;;22.10;99.90;;;;;;5103267;27;20198;-53
2022/07/22 10:13:07;;;;;;;6.67;4.27;;;22.00;99.90;;;;;;5104486;27;20202;-52
2022/07/22 10:15:36;;;;;;;6.50;4.07;;;22.30;99.90;;;;;;5085064;28;21974;-55
2022/07/22 10:18:14;;;;;;;4.67;4.17;;;22.50;99.90;;;;;;5101835;27;20205;-53
2022/07/22 10:20:41;;;;;;;4.50;3.67;;;22.30;99.90;;;;;;5100193;27;20615;-52
2022/07/22 10:23:10;;;;;;;7.30;4.30;;;22.30;99.90;;;;;;5083418;28;20194;-55
2022/07/22 10:26:01;;;;;;;4.37;3.97;;;22.30;99.90;;;;;;5100305;27;20249;-53
2022/07/22 10:28:29;;;;;;;4.57;4.10;;;22.20;99.90;;;;;;5102162;27;20921;-53
2022/07/22 10:31:17;;;;;;;6.57;4.10;;;22.20;99.90;;;;;;5078596;28;20200;-54
2022/07/22 10:33:48;;;;;;;4.03;3.63;;;22.20;99.90;;;;;;5099029;27;20618;-53
2022/07/22 10:36:31;;;;;;;3.20;2.90;;;22.60;99.90;;;;;;5098746;27;20544;-54
2022/07/22 10:39:07;;;;;;;4.23;3.23;;;23.50;99.90;;;;;;5100269;27;20199;-53
2022/07/22 10:41:36;;;;;;;5.07;4.07;;;23.50;99.90;;;;;;5094808;27;20606;-53
2022/07/22 10:44:04;;;;;;;3.80;3.50;;;23.30;99.90;;;;;;5077759;28;20297;-53
2022/07/22 10:46:55;;;;;;;5.80;3.40;;;22.70;99.90;;;;;;5096865;27;20249;-52
2022/07/22 10:49:25;;;;;;;4.70;3.70;;;22.70;99.90;;;;;;5100689;27;20203;-56
2022/07/22 10:52:11;;;;;;;4.10;3.40;;;22.40;99.90;;;;;;5081240;28;20250;-54
2022/07/22 10:55:17;;;;;;;4.07;3.67;;;22.80;99.90;;;;;;5096127;27;20226;-53
2022/07/22 10:57:45;;;;;;;3.97;3.57;;;22.40;99.90;;;;;;5081851;28;20249;-53
2022/07/22 11:00:12;;;;;;;5.63;4.13;;;22.30;99.90;;;;;;5079626;28;20210;-55
2022/07/22 11:02:39;;;;;;;4.70;3.67;;;22.60;99.90;;;;;;5096946;28;20298;-53
2022/07/22 11:05:08;;;;;;;5.17;4.10;;;22.70;99.90;;;;;;5101856;27;20213;-54
2022/07/22 11:07:45;;;;;;;3.50;3.20;;;23.10;99.90;;;;;;5102374;27;20247;-54
2022/07/22 11:10:17;;;;;;;5.20;3.33;;;23.70;99.90;;;;;;5097581;28;20194;-54
2022/07/22 11:12:48;;;;;;;5.27;3.70;;;24.00;99.90;;;;;;5100790;28;20201;-54
2022/07/22 11:15:15;;;;;;;5.23;3.67;;;24.00;99.90;;;;;;5084813;28;20206;-54
2022/07/22 11:17:43;;;;;;;4.53;3.53;;;23.60;99.90;;;;;;5100070;27;20300;-53
2022/07/22 11:20:11;;;;;;;4.90;3.40;;;23.20;99.90;;;;;;5098676;27;20220;-54
2022/07/22 11:22:39;;;;;;;3.47;2.77;;;22.70;99.90;;;;;;5095192;27;20209;-53
2022/07/22 11:25:08;;;;;;;8.30;3.87;;;22.80;99.90;;;;;;5090420;27;20207;-54
2022/07/22 11:27:35;;;;;;;4.70;3.13;;;23.20;99.90;;;;;;5099075;27;21255;-54
2022/07/22 11:30:04;;;;;;;5.03;3.00;;;23.30;99.90;;;;;;5080476;27;20224;-54
2022/07/22 11:32:32;;;;;;;4.07;2.90;;;23.80;99.90;;;;;;5099086;27;20201;-54
2022/07/22 11:34:59;;;;;;;3.77;2.90;;;24.70;99.90;;;;;;5079356;28;20205;-54
2022/07/22 11:37:28;;;;;;;3.30;3.00;;;25.70;99.90;;;;;;5098041;27;20199;-53
2022/07/22 11:40:04;;;;;;;5.87;2.23;;;25.30;99.90;;;;;;5096075;27;20210;-54
2022/07/22 11:42:31;;;;;;;3.60;2.53;;;26.50;99.90;;;;;;5103492;27;20243;-56
2022/07/22 11:44:58;;;;;;;3.77;3.23;;;27.10;99.90;;;;;;5083289;27;20266;-56
2022/07/22 11:47:25;;;;;;;5.60;3.20;;;26.10;99.90;;;;;;5097007;27;20300;-54
2022/07/22 11:49:52;;;;;;;3.33;2.77;;;24.70;99.90;;;;;;5099841;27;20217;-54
2022/07/22 11:52:19;;;;;;;5.50;3.50;;;24.10;99.90;;;;;;5078557;27;20835;-55
2022/07/22 11:54:46;;;;;;;4.53;3.63;;;24.10;99.90;;;;;;5093487;28;20631;-55
2022/07/22 11:57:14;;;;;;;5.57;3.53;;;23.40;99.90;;;;;;5094066;27;20299;-53
2022/07/22 11:59:41;;;;;;;4.40;3.13;;;24.40;99.90;;;;;;5096823;27;20209;-55
2022/07/22 12:02:11;;;;;;;4.03;2.93;;;25.10;99.90;;;;;;5093742;27;20755;-54
2022/07/22 12:04:39;;;;;;;3.83;2.67;;;25.50;99.90;;;;;;5093289;27;20217;-53
2022/07/22 12:07:07;;;;;;;4.27;2.63;;;26.50;99.90;;;;;;5094894;27;20218;-54
2022/07/22 12:09:36;;;;;;;4.93;3.73;;;26.60;99.90;;;;;;5066307;28;20300;-55
2022/07/22 12:12:04;;;;;;;4.10;2.90;;;26.80;99.90;;;;;;5083927;27;20653;-53
2022/07/22 12:14:33;;;;;;;5.30;4.03;;;26.70;99.90;;;;;;5093887;27;20301;-61
2022/07/22 12:17:04;;;;;;;4.70;3.87;;;26.90;99.90;;;;;;5094589;27;20624;-53
2022/07/22 12:19:34;;;;;;;4.83;4.33;;;26.40;99.90;;;;;;5089962;27;20273;-54
2022/07/22 12:22:18;;;;;;;4.07;3.77;;;24.70;99.90;;;;;;5086845;27;20298;-54
2022/07/22 12:24:57;;;;;;;4.73;3.87;;;24.30;99.90;;;;;;5090338;27;20224;-53
2022/07/22 12:27:24;;;;;;;3.20;2.90;;;24.80;99.90;;;;;;5092631;27;20644;-54
2022/07/22 12:29:51;;;;;;;3.23;2.73;;;25.60;99.90;;;;;;5090073;27;20614;-54
2022/07/22 12:32:25;;;;;;;5.63;3.30;;;26.10;99.90;;;;;;5071235;28;20226;-54
2022/07/22 12:34:56;;;;;;;4.57;3.17;;;25.80;99.90;;;;;;5074997;28;20220;-54
2022/07/22 12:37:40;;;;;;;6.60;3.60;;;26.00;99.90;;;;;;5089373;27;20300;-54
2022/07/22 12:40:11;;;;;;;2.90;2.43;;;25.80;99.90;;;;;;5099947;27;20283;-54
2022/07/22 12:42:41;;;;;;;4.33;3.57;;;26.40;99.90;;;;;;5097707;27;20213;-53
2022/07/22 12:45:09;;;;;;;4.33;3.40;;;25.60;99.90;;;;;;5092582;27;20256;-54
2022/07/22 12:47:52;;;;;;;4.77;2.80;;;25.70;99.90;;;;;;5098111;27;20664;-54
2022/07/22 12:50:20;;;;;;;3.77;3.17;;;25.70;99.90;;;;;;5080642;28;20568;-55
2022/07/22 12:52:51;;;;;;;5.87;3.07;;;26.00;99.90;;;;;;5097018;27;20290;-54
2022/07/22 12:55:55;;;;;;;5.07;4.00;;;26.40;99.90;;;;;;5099670;28;20957;-56
2022/07/22 12:58:24;;;;;;;6.20;3.93;;;26.80;99.90;;;;;;5093892;28;20839;-54